Time;durP1;ratioP1;P1;durP2;ratioP2;P2;SDS_P1;SDS_P2;PMS_P1;PMS_P2;Temp;Humidity;BMP_temperature;BMP_pressure;BME280_temperature;BME280_humidity;BME280_pressure;Samples;Min_cycle;Max_cycle;Signal;HPM_P1;HPM_P2
2024/03/29 01:45:19;;;;;;;4.65;2.75;;;20.70;73.60;;;;;;5023799;28;20328;-43
2024/03/29 01:47:57;;;;;;;3.05;1.50;;;20.70;73.70;;;;;;5018375;28;20738;-43
2024/03/29 01:50:32;;;;;;;5.65;1.50;;;20.70;73.70;;;;;;5021520;28;20194;-42
2024/03/29 01:53:00;;;;;;;5.43;1.60;;;20.70;73.90;;;;;;5022665;28;20201;-44
2024/03/29 01:55:31;;;;;;;8.65;2.95;;;20.60;73.70;;;;;;5024150;28;20305;-44
2024/03/29 01:58:08;;;;;;;2.00;1.30;;;20.60;73.90;;;;;;5020288;28;20208;-43
2024/03/29 02:00:42;;;;;;;3.33;1.58;;;20.60;74.10;;;;;;5020140;28;20799;-44
2024/03/29 02:03:34;;;;;;;2.17;1.45;;;20.60;74.10;;;;;;5020881;28;21177;-45
2024/03/29 02:06:05;;;;;;;2.33;1.63;;;20.50;74.30;;;;;;5022848;28;20203;-42
2024/03/29 02:08:31;;;;;;;1.73;1.33;;;20.50;74.40;;;;;;5015115;28;20209;-40
2024/03/29 02:10:58;;;;;;;5.90;1.88;;;20.50;74.50;;;;;;5021055;28;20864;-47
2024/03/29 02:13:38;;;;;;;6.65;1.75;;;20.50;74.60;;;;;;5025900;28;20619;-45
2024/03/29 02:16:11;;;;;;;4.68;1.65;;;20.40;73.90;;;;;;5022864;28;21193;-44
2024/03/29 02:18:46;;;;;;;3.00;1.52;;;20.40;74.70;;;;;;5021527;28;20214;-46
2024/03/29 02:21:13;;;;;;;2.67;1.73;;;20.40;73.10;;;;;;5022504;28;20695;-44
2024/03/29 02:23:56;;;;;;;3.65;1.48;;;20.40;74.90;;;;;;5020843;28;20232;-44
2024/03/29 02:26:35;;;;;;;1.95;1.40;;;20.40;74.90;;;;;;5011021;28;20198;-45
2024/03/29 02:29:08;;;;;;;2.92;1.35;;;20.40;74.30;;;;;;5013424;28;20630;-42
2024/03/29 02:31:39;;;;;;;1.55;1.23;;;20.40;75.10;;;;;;5010017;28;20211;-45
2024/03/29 02:34:09;;;;;;;3.72;1.63;;;20.40;75.00;;;;;;5013856;28;20793;-45
2024/03/29 02:36:39;;;;;;;1.92;1.55;;;20.30;73.50;;;;;;5016233;28;20343;-42
2024/03/29 02:39:08;;;;;;;3.13;1.20;;;20.30;75.20;;;;;;5016176;28;20237;-44
2024/03/29 02:41:36;;;;;;;2.78;1.38;;;20.30;75.40;;;;;;5011802;28;20198;-45
2024/03/29 02:44:10;;;;;;;1.40;1.10;;;20.30;75.50;;;;;;5009910;28;20213;-46
2024/03/29 02:46:37;;;;;;;4.40;1.50;;;20.30;75.70;;;;;;5012702;28;20391;-42
2024/03/29 02:49:13;;;;;;;2.67;1.60;;;20.20;75.70;;;;;;5009494;28;20208;-43
2024/03/29 02:51:44;;;;;;;4.13;1.35;;;20.20;75.90;;;;;;5011030;28;20232;-43
2024/03/29 02:54:25;;;;;;;1.70;1.13;;;20.10;75.40;;;;;;5011618;28;21175;-45
2024/03/29 02:56:55;;;;;;;2.17;1.10;;;20.10;75.90;;;;;;5017318;28;20198;-45
2024/03/29 02:59:33;;;;;;;3.28;1.20;;;20.10;76.00;;;;;;5019524;28;20721;-44
2024/03/29 03:02:00;;;;;;;2.15;1.27;;;20.10;75.90;;;;;;5010711;28;20217;-43
2024/03/29 03:04:38;;;;;;;1.90;1.40;;;20.10;76.20;;;;;;5012903;28;20285;-43
2024/03/29 03:13:02;;;;;;;2.53;1.50;;;20.10;76.50;;;;;;5014556;28;20254;-44
2024/03/29 03:15:33;;;;;;;2.10;1.40;;;20.00;75.10;;;;;;5012685;28;20263;-43
2024/03/29 03:18:01;;;;;;;2.70;1.70;;;20.10;76.50;;;;;;5013672;28;20371;-44
2024/03/29 03:20:41;;;;;;;2.35;1.30;;;20.00;76.50;;;;;;5012513;28;20772;-44
2024/03/29 03:23:17;;;;;;;2.50;1.33;;;20.00;76.60;;;;;;5010773;28;20630;-43
2024/03/29 03:25:52;;;;;;;4.95;1.30;;;20.00;76.20;;;;;;5010424;28;20210;-45
2024/03/29 03:28:35;;;;;;;3.25;1.08;;;19.90;76.70;;;;;;5017291;28;20202;-45
2024/03/29 03:31:07;;;;;;;2.42;1.10;;;20.00;76.70;;;;;;5012713;28;20194;-46
2024/03/29 03:33:37;;;;;;;1.70;1.50;;;19.90;76.90;;;;;;5012864;28;20299;-43
2024/03/29 03:36:06;;;;;;;1.95;1.58;;;19.90;77.00;;;;;;5011657;28;20202;-43
2024/03/29 03:38:39;;;;;;;2.28;1.13;;;19.90;77.00;;;;;;5010692;28;20749;-44
2024/03/29 03:41:12;;;;;;;2.35;1.17;;;19.80;76.70;;;;;;5013661;28;20199;-47
2024/03/29 03:43:53;;;;;;;;;;;;;;;;;;;;;
2024/03/29 03:46:21;;;;;;;3.25;1.35;;;19.80;76.10;;;;;;5012439;28;20881;-45
2024/03/29 03:48:55;;;;;;;2.00;1.15;;;19.80;76.00;;;;;;5018906;28;20799;-46
2024/03/29 03:51:25;;;;;;;1.50;1.10;;;19.80;76.40;;;;;;5013995;28;20395;-47
2024/03/29 03:53:57;;;;;;;2.00;1.63;;;19.70;74.70;;;;;;5012584;28;20195;-45
2024/03/29 03:56:29;;;;;;;1.73;1.00;;;19.70;74.80;;;;;;5013323;28;20195;-46
2024/03/29 03:59:03;;;;;;;2.25;1.55;;;19.70;77.60;;;;;;5013648;28;20338;-42
2024/03/29 04:01:36;;;;;;;2.17;1.20;;;19.80;75.50;;;;;;5011948;28;20213;-45
2024/03/29 04:04:04;;;;;;;2.60;1.05;;;19.70;75.10;;;;;;5012120;28;20704;-42
2024/03/29 04:06:38;;;;;;;1.67;1.33;;;19.70;77.10;;;;;;5020310;28;20910;-43
2024/03/29 04:09:10;;;;;;;1.80;1.02;;;19.70;77.30;;;;;;5011998;28;20202;-44
2024/03/29 04:11:41;;;;;;;3.30;1.30;;;19.70;77.40;;;;;;5009213;28;20321;-46
2024/03/29 04:14:11;;;;;;;1.52;1.20;;;19.70;77.60;;;;;;5011962;28;20388;-44
2024/03/29 04:16:47;;;;;;;1.52;1.00;;;19.70;77.60;;;;;;5010260;28;20587;-42
2024/03/29 04:19:20;;;;;;;2.00;1.10;;;19.70;77.40;;;;;;5011384;28;20218;-44
2024/03/29 04:21:48;;;;;;;2.25;1.20;;;19.70;77.40;;;;;;5007930;28;20780;-43
2024/03/29 04:24:29;;;;;;;2.35;1.20;;;19.70;77.70;;;;;;5010515;28;20308;-43
2024/03/29 04:27:05;;;;;;;1.40;1.17;;;19.70;77.80;;;;;;5004456;28;21100;-43
2024/03/29 04:29:34;;;;;;;3.15;1.38;;;19.70;77.50;;;;;;5013693;28;20197;-47
2024/03/29 04:32:05;;;;;;;1.25;1.05;;;19.60;77.30;;;;;;5013347;28;20279;-44
2024/03/29 04:34:30;;;;;;;1.75;1.13;;;19.60;76.40;;;;;;5013163;28;20202;-43
2024/03/29 04:37:05;;;;;;;1.50;1.30;;;19.60;77.10;;;;;;5013485;28;20492;-43
2024/03/29 04:39:48;;;;;;;1.52;0.90;;;19.60;77.80;;;;;;5014451;28;20822;-44
2024/03/29 04:42:16;;;;;;;1.75;1.00;;;19.60;78.00;;;;;;5017160;28;20194;-43
2024/03/29 04:44:51;;;;;;;4.20;1.67;;;19.60;77.50;;;;;;5024090;28;20633;-42
2024/03/29 04:47:19;;;;;;;3.28;1.10;;;19.60;78.20;;;;;;5017052;28;20202;-45
2024/03/29 04:49:58;;;;;;;1.70;1.10;;;19.60;77.60;;;;;;5024266;28;20236;-42
2024/03/29 04:52:32;;;;;;;5.30;1.90;;;19.60;78.20;;;;;;5023283;28;20203;-42
2024/03/29 04:55:01;;;;;;;1.48;1.05;;;19.60;78.20;;;;;;5013574;28;20194;-44
2024/03/29 04:57:32;;;;;;;2.65;1.02;;;19.60;78.40;;;;;;5022681;28;20209;-42
2024/03/29 05:00:04;;;;;;;1.65;1.17;;;19.60;78.40;;;;;;5023041;28;20214;-44
2024/03/29 05:02:31;;;;;;;1.25;1.00;;;19.50;78.20;;;;;;5023314;28;20621;-46
2024/03/29 05:05:12;;;;;;;;;;;;;;;;;;;;;
2024/03/29 05:07:44;;;;;;;2.92;2.65;;;19.50;78.50;;;;;;5023307;28;20202;-41
2024/03/29 05:10:12;;;;;;;2.90;1.13;;;19.50;78.60;;;;;;5010679;28;20341;-45
2024/03/29 05:12:41;;;;;;;2.28;0.95;;;19.50;78.40;;;;;;5018071;28;20613;-43
2024/03/29 05:15:15;;;;;;;2.78;1.05;;;19.50;76.10;;;;;;5020975;28;20195;-43
2024/03/29 05:17:48;;;;;;;3.30;1.05;;;19.50;78.40;;;;;;5023551;28;20717;-43
2024/03/29 05:20:20;;;;;;;4.03;1.52;;;19.50;78.20;;;;;;5021612;28;20222;-42
2024/03/29 05:22:53;;;;;;;2.10;1.00;;;19.40;78.20;;;;;;5018504;28;20198;-44
2024/03/29 05:25:27;;;;;;;1.88;1.13;;;19.50;78.90;;;;;;5021721;28;20186;-45
2024/03/29 05:27:53;;;;;;;1.20;0.88;;;19.50;78.80;;;;;;5015783;28;20206;-45
2024/03/29 05:30:24;;;;;;;1.10;0.85;;;19.50;79.00;;;;;;5023508;28;20210;-44
2024/03/29 05:32:59;;;;;;;2.33;1.45;;;19.50;79.00;;;;;;5021044;28;20214;-43
2024/03/29 05:35:25;;;;;;;1.17;0.77;;;19.50;79.00;;;;;;5022449;28;20229;-43
2024/03/29 05:37:56;;;;;;;1.10;0.90;;;19.50;79.00;;;;;;5019446;28;20991;-45
2024/03/29 05:40:25;;;;;;;1.92;1.00;;;19.40;79.00;;;;;;5019114;28;20657;-44
2024/03/29 05:42:52;;;;;;;1.75;1.00;;;19.40;79.10;;;;;;5016819;28;21307;-44
2024/03/29 05:45:29;;;;;;;1.95;0.98;;;19.40;79.20;;;;;;5017745;28;20206;-43
2024/03/29 05:48:03;;;;;;;2.20;1.15;;;19.40;79.30;;;;;;5016165;28;20199;-44
2024/03/29 05:50:33;;;;;;;2.30;1.35;;;19.40;79.30;;;;;;5021790;28;20201;-43
2024/03/29 05:53:09;;;;;;;1.02;0.73;;;19.40;79.30;;;;;;5009692;28;20967;-42
2024/03/29 05:55:50;;;;;;;;;;;;;;;;;;;;;
2024/03/29 06:01:05;;;;;;;1.20;1.10;;;19.30;79.40;;;;;;5016486;28;20299;-44
2024/03/29 06:03:39;;;;;;;2.33;1.55;;;19.40;79.70;;;;;;5022630;28;20205;-42
2024/03/29 06:06:17;;;;;;;2.28;1.20;;;19.40;79.70;;;;;;4999634;28;20736;-44
2024/03/29 06:08:51;;;;;;;1.98;1.10;;;19.40;79.60;;;;;;5022851;28;20191;-44
2024/03/29 06:11:18;;;;;;;1.00;0.80;;;19.40;79.70;;;;;;5005829;28;20731;-45
2024/03/29 06:19:23;;;;;;;2.00;1.80;;;19.30;79.60;;;;;;5013222;28;20710;-43
2024/03/29 06:22:07;;;;;;;1.40;0.80;;;19.30;79.60;;;;;;5010897;28;20194;-44
2024/03/29 06:24:40;;;;;;;1.75;1.02;;;19.30;79.70;;;;;;5009807;28;20202;-40
2024/03/29 06:27:11;;;;;;;1.83;0.95;;;19.30;79.70;;;;;;5009114;28;20706;-43
2024/03/29 06:29:42;;;;;;;1.60;0.88;;;19.20;79.70;;;;;;5012954;28;20296;-42
2024/03/29 06:32:10;;;;;;;2.42;1.10;;;19.20;79.70;;;;;;5011263;28;20367;-44
2024/03/29 06:34:37;;;;;;;1.52;1.02;;;19.20;79.70;;;;;;5006790;28;20594;-44
2024/03/29 06:37:11;;;;;;;1.40;1.00;;;19.20;79.30;;;;;;5015644;28;20209;-44
2024/03/29 06:39:38;;;;;;;2.17;0.95;;;19.20;79.90;;;;;;5012193;28;20323;-45
2024/03/29 06:42:09;;;;;;;2.85;1.05;;;19.30;80.10;;;;;;5008444;28;20325;-45
2024/03/29 06:44:38;;;;;;;1.35;0.90;;;19.20;79.90;;;;;;5013106;28;20207;-47
2024/03/29 06:47:20;;;;;;;1.20;0.70;;;19.20;79.90;;;;;;5010984;28;21194;-41
2024/03/29 06:49:57;;;;;;;;;;;;;;;;;;;;;
2024/03/29 06:52:28;;;;;;;1.30;0.88;;;19.20;79.90;;;;;;5002423;28;20669;-48
2024/03/29 06:54:58;;;;;;;1.55;1.10;;;19.20;80.10;;;;;;5011380;28;20698;-44
2024/03/29 06:57:31;;;;;;;1.05;0.70;;;19.20;80.20;;;;;;5007556;28;20405;-46
2024/03/29 07:00:00;;;;;;;1.83;1.00;;;19.20;80.20;;;;;;5011620;28;20797;-48
2024/03/29 07:02:30;;;;;;;4.25;0.80;;;19.20;80.30;;;;;;5009616;28;20201;-46
2024/03/29 07:05:11;;;;;;;1.83;0.98;;;19.20;80.20;;;;;;5008732;28;20780;-46
2024/03/29 07:07:47;;;;;;;1.65;1.00;;;19.20;80.40;;;;;;5008300;28;20341;-45
2024/03/29 07:10:17;;;;;;;1.70;0.80;;;19.20;80.50;;;;;;5007904;28;20281;-45
2024/03/29 07:12:46;;;;;;;1.65;1.15;;;19.20;80.40;;;;;;5007956;28;20202;-46
2024/03/29 07:15:14;;;;;;;1.90;1.40;;;19.20;80.10;;;;;;5010079;28;20198;-47
2024/03/29 07:20:37;;;;;;;1.80;1.13;;;19.20;79.90;;;;;;5011801;28;21742;-48
2024/03/29 07:23:11;;;;;;;1.58;1.15;;;19.10;79.80;;;;;;5012569;28;20703;-47
2024/03/29 07:25:44;;;;;;;3.10;0.95;;;19.10;79.60;;;;;;5009215;28;20208;-47
2024/03/29 07:28:14;;;;;;;2.53;1.48;;;19.10;79.50;;;;;;5009919;28;20195;-45
2024/03/29 07:30:44;;;;;;;1.20;0.80;;;19.10;79.40;;;;;;5010736;28;20233;-45
2024/03/29 07:33:32;;;;;;;1.40;1.02;;;19.10;79.40;;;;;;5011073;28;20639;-42
2024/03/29 07:36:05;;;;;;;4.60;1.00;;;19.10;78.40;;;;;;5010457;28;20232;-45
2024/03/29 07:38:36;;;;;;;1.30;0.90;;;19.20;79.50;;;;;;5011990;28;20194;-49
2024/03/29 07:41:21;;;;;;;;;;;;;;;;;;;;;
2024/03/29 07:43:59;;;;;;;1.48;0.98;;;19.50;78.00;;;;;;5007497;28;20796;-46
2024/03/29 07:46:29;;;;;;;1.50;0.80;;;19.60;77.10;;;;;;5011431;28;20194;-46
2024/03/29 07:49:06;;;;;;;2.63;1.02;;;19.70;77.50;;;;;;5012027;28;20381;-48
2024/03/29 07:51:42;;;;;;;1.30;1.05;;;19.80;77.30;;;;;;5010903;28;20685;-46
2024/03/29 07:54:08;;;;;;;1.63;1.00;;;19.80;77.20;;;;;;5011951;28;20198;-43
2024/03/29 07:56:35;;;;;;;2.15;0.90;;;19.80;77.10;;;;;;5012114;28;20269;-46
2024/03/29 07:59:02;;;;;;;2.15;1.70;;;19.80;77.00;;;;;;5011741;28;20383;-44
2024/03/29 08:01:34;;;;;;;6.90;1.05;;;19.80;77.00;;;;;;5013652;28;20229;-46
2024/03/29 08:04:04;;;;;;;1.35;0.93;;;19.80;77.00;;;;;;5016601;28;20771;-47
2024/03/29 08:06:31;;;;;;;2.17;1.10;;;19.80;77.10;;;;;;5014713;28;20897;-46
2024/03/29 08:09:01;;;;;;;1.90;1.00;;;19.80;77.10;;;;;;5018385;28;21473;-46
2024/03/29 08:11:31;;;;;;;1.13;0.80;;;19.80;77.00;;;;;;5014109;28;20645;-49
2024/03/29 08:14:01;;;;;;;1.60;1.08;;;19.80;76.80;;;;;;5014994;28;20198;-48
2024/03/29 08:16:40;;;;;;;1.20;0.93;;;19.90;76.80;;;;;;5015660;28;20274;-46
2024/03/29 08:19:12;;;;;;;1.38;0.98;;;19.90;76.20;;;;;;5015860;28;20205;-46
2024/03/29 08:21:38;;;;;;;1.20;0.90;;;19.90;76.50;;;;;;5021256;28;20835;-42
2024/03/29 08:24:08;;;;;;;1.42;0.90;;;19.90;76.60;;;;;;5018753;28;20778;-44
2024/03/29 08:26:46;;;;;;;1.30;1.08;;;20.00;76.60;;;;;;5013080;28;20233;-48
2024/03/29 08:29:13;;;;;;;1.23;0.82;;;20.10;76.40;;;;;;5012695;28;20194;-48
2024/03/29 08:31:43;;;;;;;2.45;1.10;;;20.10;76.00;;;;;;5010596;28;20663;-45
2024/03/29 08:34:15;;;;;;;1.55;0.90;;;20.10;75.90;;;;;;5015073;28;20602;-46
2024/03/29 08:36:47;;;;;;;1.20;1.00;;;20.10;75.60;;;;;;5023247;28;20198;-48
2024/03/29 08:39:15;;;;;;;1.58;0.80;;;20.10;75.70;;;;;;5015845;28;20214;-48
2024/03/29 08:41:44;;;;;;;2.20;1.20;;;20.10;75.60;;;;;;5014821;28;20210;-49
2024/03/29 08:44:23;;;;;;;;;;;;;;;;;;;;;
2024/03/29 08:46:56;;;;;;;1.70;0.82;;;20.10;75.50;;;;;;5011549;28;20607;-48
2024/03/29 08:49:26;;;;;;;2.22;0.88;;;20.20;75.60;;;;;;5013701;28;20231;-47
2024/03/29 08:52:10;;;;;;;;;;;;;;;;;;;;;
2024/03/29 08:54:38;;;;;;;1.40;0.90;;;20.20;75.40;;;;;;5011794;28;20912;-49
2024/03/29 08:57:10;;;;;;;1.50;1.00;;;20.20;75.30;;;;;;5010260;28;20663;-48
2024/03/29 08:59:44;;;;;;;1.05;0.75;;;20.20;76.00;;;;;;5012044;28;20368;-46
2024/03/29 09:02:12;;;;;;;1.10;0.70;;;20.20;75.10;;;;;;5010942;28;20223;-48
2024/03/29 09:04:43;;;;;;;1.67;0.80;;;20.30;75.20;;;;;;5009843;28;20218;-49
2024/03/29 09:07:12;;;;;;;3.95;0.95;;;20.20;74.90;;;;;;5022069;28;20200;-47
2024/03/29 09:09:43;;;;;;;4.40;1.10;;;20.30;75.40;;;;;;5009788;28;20831;-47
2024/03/29 09:12:18;;;;;;;2.50;0.85;;;20.40;75.30;;;;;;5012857;28;20669;-48
2024/03/29 09:14:48;;;;;;;4.80;1.27;;;20.50;75.30;;;;;;5010192;28;20658;-47
2024/03/29 09:17:16;;;;;;;2.10;0.90;;;20.60;75.30;;;;;;5013274;28;21043;-47
2024/03/29 09:19:46;;;;;;;2.50;1.30;;;20.70;75.00;;;;;;5018039;28;20202;-48
2024/03/29 09:22:18;;;;;;;4.40;1.25;;;20.70;75.10;;;;;;5018783;28;21006;-46
2024/03/29 09:24:46;;;;;;;3.08;1.20;;;20.70;74.80;;;;;;5022615;28;20202;-46
2024/03/29 09:27:15;;;;;;;1.43;1.10;;;20.80;74.90;;;;;;5020472;28;20288;-48
2024/03/29 09:29:43;;;;;;;4.63;1.10;;;20.80;74.60;;;;;;5022560;28;20462;-48
2024/03/29 09:32:17;;;;;;;1.27;0.87;;;20.90;74.50;;;;;;5023360;28;20476;-45
2024/03/29 09:34:47;;;;;;;1.27;0.90;;;20.90;74.20;;;;;;5024141;28;20472;-47
2024/03/29 09:37:19;;;;;;;1.47;1.00;;;21.00;74.00;;;;;;5020034;28;20472;-49
2024/03/29 09:39:46;;;;;;;2.60;1.00;;;21.10;73.90;;;;;;5018338;28;21088;-48
2024/03/29 09:42:18;;;;;;;1.40;1.00;;;21.10;73.60;;;;;;5019880;28;20480;-47
2024/03/29 09:44:50;;;;;;;1.27;0.90;;;21.20;73.60;;;;;;5019124;28;20464;-48
2024/03/29 09:47:28;;;;;;;1.03;0.80;;;21.20;73.30;;;;;;5017476;28;21174;-46
2024/03/29 09:49:58;;;;;;;1.10;0.80;;;21.20;73.10;;;;;;5010922;28;20464;-52
2024/03/29 09:52:38;;;;;;;1.03;0.80;;;21.20;72.90;;;;;;5019619;28;20619;-49
2024/03/29 09:55:08;;;;;;;1.33;0.80;;;21.20;72.60;;;;;;5016444;28;20487;-48
2024/03/29 09:57:40;;;;;;;2.77;1.30;;;21.20;72.90;;;;;;5021967;28;20495;-48
2024/03/29 10:00:14;;;;;;;0.90;0.70;;;21.30;72.80;;;;;;5022516;28;20900;-50
2024/03/29 10:02:48;;;;;;;1.03;0.80;;;21.30;72.60;;;;;;5019444;28;20459;-49
2024/03/29 10:05:19;;;;;;;1.67;0.80;;;21.30;72.40;;;;;;5020389;28;20460;-46
2024/03/29 10:07:54;;;;;;;1.23;0.80;;;21.30;72.30;;;;;;5017967;28;20473;-48
2024/03/29 10:10:26;;;;;;;1.30;0.70;;;21.30;72.00;;;;;;5020529;28;20915;-51
2024/03/29 10:12:56;;;;;;;2.10;0.90;;;21.40;71.90;;;;;;5023863;28;20546;-46
2024/03/29 10:15:26;;;;;;;1.10;0.90;;;21.40;71.80;;;;;;5019329;28;20472;-48
2024/03/29 10:18:02;;;;;;;2.30;0.97;;;21.50;71.60;;;;;;5020531;28;21054;-50
2024/03/29 10:20:31;;;;;;;1.30;0.80;;;21.50;71.60;;;;;;5021379;28;20460;-47
2024/03/29 10:23:07;;;;;;;1.10;0.80;;;21.60;71.40;;;;;;5014195;28;20585;-47
2024/03/29 10:25:40;;;;;;;1.30;0.90;;;21.60;71.20;;;;;;5019431;28;21137;-50
2024/03/29 10:28:06;;;;;;;2.87;1.13;;;21.60;71.00;;;;;;5017616;28;20678;-49
2024/03/29 10:30:35;;;;;;;4.10;0.80;;;21.70;70.90;;;;;;5021131;28;20976;-49
2024/03/29 10:33:04;;;;;;;1.20;0.80;;;21.80;70.70;;;;;;5023724;28;20459;-48
2024/03/29 10:35:36;;;;;;;1.70;1.00;;;21.80;70.50;;;;;;5021096;28;20461;-48
2024/03/29 10:38:07;;;;;;;1.60;0.90;;;21.90;70.40;;;;;;5019401;28;20943;-48
2024/03/29 10:40:42;;;;;;;2.20;0.87;;;21.90;70.10;;;;;;5023041;28;20465;-52
2024/03/29 10:43:12;;;;;;;2.13;1.57;;;21.80;69.70;;;;;;5018294;28;21026;-49
2024/03/29 10:45:43;;;;;;;1.00;0.80;;;21.90;70.00;;;;;;5023956;28;20538;-45
2024/03/29 10:48:11;;;;;;;1.07;0.80;;;21.90;69.90;;;;;;5017878;28;20449;-46
2024/03/29 10:50:51;;;;;;;1.30;0.83;;;22.00;69.70;;;;;;5024728;28;20461;-48
2024/03/29 10:53:19;;;;;;;1.50;0.80;;;22.00;69.70;;;;;;5019029;28;20467;-46
2024/03/29 10:55:55;;;;;;;1.20;0.77;;;22.00;69.50;;;;;;5024973;28;20471;-49
2024/03/29 10:58:38;;;;;;;1.27;0.90;;;22.10;69.40;;;;;;5021834;28;20964;-48
2024/03/29 11:01:15;;;;;;;4.30;1.17;;;22.10;69.30;;;;;;5017951;28;20975;-51
2024/03/29 11:03:50;;;;;;;1.97;1.00;;;22.10;68.90;;;;;;5013874;28;20457;-49
2024/03/29 11:06:32;;;;;;;3.57;1.10;;;22.20;69.20;;;;;;5016500;28;20437;-50
2024/03/29 11:09:05;;;;;;;8.43;1.00;;;22.20;69.20;;;;;;5000305;28;20456;-49
2024/03/29 11:11:38;;;;;;;2.13;1.07;;;22.20;69.60;;;;;;5013027;28;20583;-49
2024/03/29 11:14:15;;;;;;;4.30;0.80;;;22.30;69.60;;;;;;5011483;28;20464;-48
2024/03/29 11:16:45;;;;;;;2.20;1.00;;;22.30;69.40;;;;;;5008594;28;20506;-51
2024/03/29 11:19:15;;;;;;;1.03;0.80;;;22.30;69.50;;;;;;5010642;28;20460;-49
2024/03/29 11:25:03;;;;;;;1.30;0.80;;;22.40;69.90;;;;;;5020625;28;20459;-48
2024/03/29 11:27:37;;;;;;;1.00;0.70;;;22.50;69.90;;;;;;5014197;28;21018;-50
2024/03/29 11:30:21;;;;;;;2.70;0.90;;;22.60;69.90;;;;;;5016902;28;20463;-50
2024/03/29 11:32:55;;;;;;;1.10;0.93;;;22.60;69.70;;;;;;5015314;28;21032;-48
2024/03/29 11:35:33;;;;;;;1.57;0.73;;;22.70;69.50;;;;;;5016869;28;20616;-49
2024/03/29 11:38:09;;;;;;;1.30;0.80;;;22.70;69.70;;;;;;5020769;28;20460;-48
2024/03/29 11:40:43;;;;;;;3.47;1.00;;;22.80;69.60;;;;;;5015303;28;20551;-47
2024/03/29 11:43:17;;;;;;;2.03;0.90;;;22.80;69.40;;;;;;5011830;28;20492;-45
2024/03/29 11:45:54;;;;;;;1.17;0.90;;;22.80;69.60;;;;;;5015809;28;20465;-47
2024/03/29 11:48:29;;;;;;;1.33;0.97;;;22.80;69.70;;;;;;5019843;28;20453;-45
2024/03/29 11:51:08;;;;;;;1.63;0.80;;;22.80;69.30;;;;;;5014719;28;20696;-50
2024/03/29 11:53:50;;;;;;;1.17;0.73;;;22.90;69.60;;;;;;4999802;28;21031;-49
2024/03/29 11:56:21;;;;;;;1.30;1.10;;;22.90;69.60;;;;;;5020610;28;20931;-47
2024/03/29 11:58:59;;;;;;;;;;;;;;;;;;;;;
2024/03/29 12:01:29;;;;;;;1.20;1.00;;;22.90;69.50;;;;;;5018050;28;20476;-51
2024/03/29 12:04:05;;;;;;;4.17;0.93;;;23.00;69.30;;;;;;5021370;28;20460;-50
2024/03/29 12:06:32;;;;;;;1.00;0.80;;;23.00;69.30;;;;;;5021080;28;20467;-50
2024/03/29 12:09:04;;;;;;;1.10;0.80;;;23.00;69.30;;;;;;5018605;28;20928;-48
2024/03/29 12:11:36;;;;;;;1.00;0.70;;;23.10;69.30;;;;;;5015365;28;20461;-48
2024/03/29 12:14:21;;;;;;;1.20;0.90;;;23.10;68.20;;;;;;5009003;28;20519;-51
2024/03/29 12:16:56;;;;;;;1.67;0.93;;;23.10;69.20;;;;;;5020384;28;20558;-53
2024/03/29 12:19:31;;;;;;;2.30;0.93;;;23.10;68.10;;;;;;5018969;28;20982;-50
2024/03/29 12:22:02;;;;;;;1.03;0.80;;;23.10;68.80;;;;;;5020929;28;20483;-47
2024/03/29 12:24:34;;;;;;;1.40;1.10;;;23.10;68.80;;;;;;5016622;28;20479;-50
2024/03/29 12:27:05;;;;;;;1.03;0.90;;;23.20;69.00;;;;;;5017273;28;20911;-47
2024/03/29 12:29:42;;;;;;;1.63;0.80;;;23.20;68.90;;;;;;5017924;28;20456;-52
2024/03/29 12:32:34;;;;;;;1.27;0.87;;;23.20;68.90;;;;;;5016077;28;21049;-48
2024/03/29 12:35:12;;;;;;;1.60;1.07;;;23.20;68.60;;;;;;5021326;28;20540;-51
2024/03/29 12:38:00;;;;;;;;;;;;;;;;;;;;;
2024/03/29 12:40:35;;;;;;;1.30;0.90;;;23.30;68.90;;;;;;5017353;28;20456;-54
2024/03/29 12:43:11;;;;;;;2.70;1.10;;;23.30;68.80;;;;;;5007873;28;21120;-49
2024/03/29 12:45:54;;;;;;;1.47;0.80;;;23.40;68.80;;;;;;5021917;28;20464;-49
2024/03/29 12:48:40;;;;;;;2.50;0.80;;;23.40;68.70;;;;;;5015463;28;20456;-48
2024/03/29 12:51:23;;;;;;;1.00;0.80;;;23.40;68.50;;;;;;5024327;28;20468;-49
2024/03/29 12:54:03;;;;;;;1.73;0.90;;;23.50;68.70;;;;;;5025925;28;20471;-48
2024/03/29 12:56:33;;;;;;;1.20;0.90;;;23.50;68.50;;;;;;5018166;28;20468;-47
2024/03/29 12:59:05;;;;;;;1.93;0.90;;;23.50;68.50;;;;;;5021342;28;20457;-48
2024/03/29 13:01:41;;;;;;;;;;;;;;;;;;;;;
2024/03/29 13:04:14;;;;;;;1.13;0.90;;;23.50;68.30;;;;;;5020490;28;20448;-50
2024/03/29 13:06:46;;;;;;;1.20;1.00;;;23.50;68.10;;;;;;5017844;28;20462;-49
2024/03/29 13:09:16;;;;;;;1.10;0.97;;;23.50;68.20;;;;;;5012907;28;20482;-49
2024/03/29 13:11:59;;;;;;;1.00;0.70;;;23.50;68.20;;;;;;5022165;28;20464;-51
2024/03/29 13:14:37;;;;;;;1.40;1.10;;;23.50;67.90;;;;;;5017538;28;22880;-52
2024/03/29 13:17:07;;;;;;;1.10;0.90;;;23.60;67.90;;;;;;5020318;28;20456;-50
2024/03/29 13:19:37;;;;;;;1.80;0.90;;;23.60;68.20;;;;;;5021957;28;20889;-48
2024/03/29 13:22:06;;;;;;;1.20;0.80;;;23.60;68.10;;;;;;4866510;28;20590;-51
2024/03/29 13:24:40;;;;;;;1.50;1.07;;;23.60;67.90;;;;;;4837878;28;20804;-47
2024/03/29 13:27:13;;;;;;;1.83;1.20;;;23.60;67.60;;;;;;4851329;28;21070;-51
2024/03/29 13:29:46;;;;;;;1.17;0.80;;;23.60;67.60;;;;;;4845875;28;21085;-49
2024/03/29 13:32:18;;;;;;;1.10;0.97;;;23.60;67.40;;;;;;4838380;28;20468;-51
2024/03/29 13:34:50;;;;;;;1.67;1.20;;;23.50;67.00;;;;;;4836301;28;20464;-55
2024/03/29 13:37:19;;;;;;;1.10;0.90;;;23.60;67.20;;;;;;4838475;28;20950;-53
2024/03/29 13:40:25;;;;;;;2.50;1.10;;;23.50;67.50;;;;;;4834496;28;21401;-51
2024/03/29 13:43:02;;;;;;;1.03;0.90;;;23.60;66.80;;;;;;4804900;28;20481;-48
2024/03/29 13:45:31;;;;;;;2.47;0.93;;;23.60;67.20;;;;;;4830853;28;20554;-53
2024/03/29 13:47:59;;;;;;;1.03;0.80;;;23.60;67.90;;;;;;4831166;28;21158;-49
2024/03/29 13:50:41;;;;;;;1.10;0.80;;;23.60;68.10;;;;;;4870604;28;20459;-45
2024/03/29 13:53:40;;;;;;;1.10;0.90;;;23.60;67.90;;;;;;5036398;28;20964;-56
2024/03/29 13:56:13;;;;;;;1.30;1.17;;;23.60;67.20;;;;;;5040928;28;20606;-47
2024/03/29 13:58:49;;;;;;;1.53;0.80;;;23.70;68.00;;;;;;5031747;28;21102;-46
2024/03/29 14:01:28;;;;;;;1.30;0.90;;;23.70;67.70;;;;;;5023084;28;21469;-46
2024/03/29 14:04:00;;;;;;;2.03;0.97;;;23.70;67.90;;;;;;5027461;28;20484;-45
2024/03/29 14:06:30;;;;;;;1.53;1.00;;;23.70;67.60;;;;;;5032244;28;20715;-49
2024/03/29 14:11:54;;;;;;;2.53;0.80;;;23.70;68.00;;;;;;5042740;28;20449;-50
2024/03/29 14:14:36;;;;;;;1.30;1.00;;;23.80;68.40;;;;;;5022951;28;20979;-46
2024/03/29 14:17:06;;;;;;;1.13;0.97;;;23.80;68.40;;;;;;5033632;28;20954;-49
2024/03/29 14:19:53;;;;;;;3.03;1.77;;;23.80;68.00;;;;;;5024758;28;20485;-53
2024/03/29 14:22:20;;;;;;;1.77;1.07;;;23.80;68.20;;;;;;5007348;28;20480;-54
2024/03/29 14:24:51;;;;;;;1.30;0.80;;;23.80;67.70;;;;;;5019760;28;20738;-47
2024/03/29 14:27:31;;;;;;;1.93;0.73;;;23.80;68.00;;;;;;5029368;28;21518;-48
2024/03/29 14:30:16;;;;;;;1.40;1.00;;;23.80;68.00;;;;;;5040362;28;20463;-49
2024/03/29 14:32:56;;;;;;;1.40;0.97;;;23.80;68.00;;;;;;5039004;28;20559;-51
2024/03/29 14:35:58;;;;;;;1.83;0.93;;;23.80;68.00;;;;;;5042135;28;20461;-46
2024/03/29 14:38:35;;;;;;;1.10;0.80;;;23.70;67.10;;;;;;5044900;28;20462;-46
2024/03/29 14:41:11;;;;;;;1.80;1.00;;;23.70;67.50;;;;;;5044747;28;20475;-51
2024/03/29 14:43:46;;;;;;;1.57;0.90;;;23.70;67.60;;;;;;5041434;28;20476;-50
2024/03/29 14:46:16;;;;;;;1.30;0.97;;;23.70;67.30;;;;;;5041562;28;20545;-47
2024/03/29 14:48:52;;;;;;;2.00;0.80;;;23.70;67.20;;;;;;5038657;28;20474;-54
2024/03/29 14:51:33;;;;;;;1.47;0.90;;;23.70;67.40;;;;;;5032266;28;20812;-49
2024/03/29 14:54:10;;;;;;;1.40;1.00;;;23.80;67.50;;;;;;5030099;28;20452;-50
2024/03/29 14:56:47;;;;;;;1.20;0.97;;;23.80;67.30;;;;;;5036330;28;20459;-47
2024/03/29 14:59:15;;;;;;;1.20;0.83;;;23.80;67.30;;;;;;5034526;28;20448;-48
2024/03/29 15:01:50;;;;;;;1.73;1.00;;;23.80;67.20;;;;;;5036597;28;20460;-46
2024/03/29 15:04:19;;;;;;;1.17;0.80;;;23.80;66.90;;;;;;5037935;28;21074;-51
2024/03/29 15:06:49;;;;;;;1.23;0.97;;;23.80;67.10;;;;;;5033090;28;20469;-48
2024/03/29 15:09:21;;;;;;;1.27;0.90;;;23.80;67.00;;;;;;5035194;28;21230;-49
2024/03/29 15:11:52;;;;;;;1.13;0.90;;;23.80;66.90;;;;;;5042971;28;20902;-47
2024/03/29 15:14:22;;;;;;;1.20;0.90;;;23.80;66.90;;;;;;5021925;28;20512;-47
2024/03/29 15:16:59;;;;;;;1.10;0.93;;;23.80;66.80;;;;;;5035217;28;20908;-52
2024/03/29 15:19:33;;;;;;;1.30;0.80;;;23.90;67.10;;;;;;4931406;28;20916;-53
2024/03/29 15:22:06;;;;;;;1.00;0.77;;;23.90;67.10;;;;;;4846933;28;21276;-51
2024/03/29 15:24:40;;;;;;;1.10;1.00;;;23.90;66.70;;;;;;4836329;28;20880;-52
2024/03/29 15:29:03;;;;;;;1.43;0.70;;;23.90;67.00;;;;;;4840041;28;20462;-52
2024/03/29 15:30:15;;;;;;;1.10;1.00;;;23.90;66.80;;;;;;4835978;28;20984;-53
2024/03/29 15:32:47;;;;;;;1.07;0.83;;;23.90;67.30;;;;;;4839449;28;22968;-51
2024/03/29 15:35:14;;;;;;;1.57;0.80;;;23.90;67.30;;;;;;4839296;28;20463;-52
2024/03/29 15:37:49;;;;;;;4.80;0.80;;;23.90;67.30;;;;;;4830668;28;28668;-54